Time,TemperatureF,DewpointF,PressureIn,WindDirection,WindDirectionDegrees,WindSpeedMPH,WindSpeedGustMPH,Humidity,HourlyPrecipIn,Conditions,Clouds,dailyrainin,SoftwareType,DateUTC
2013-08-07 00:00:00,54.1,52.5,28.73,WSW,248,1.3,1.3,94,0.00,,CLR,0.00,VWS V14.01,2013-08-07 07:00:00,
2013-08-07 00:05:00,54.0,52.3,28.73,North,0,0.0,0.0,94,0.00,,CLR,0.00,VWS V14.01,2013-08-07 07:05:00,
2013-08-07 00:10:00,53.6,52.2,28.73,North,0,0.0,0.0,95,0.00,,CLR,0.00,VWS V14.01,2013-08-07 07:10:00,
2013-08-07 00:15:00,53.4,52.0,28.73,North,0,0.0,0.0,95,0.00,,CLR,0.00,VWS V14.01,2013-08-07 07:15:00,
2013-08-07 00:20:00,53.2,51.8,28.73,WNW,292,0.0,0.0,95,0.00,,CLR,0.00,VWS V14.01,2013-08-07 07:20:00,
2013-08-07 00:25:00,53.1,51.7,28.73,WNW,292,0.0,0.0,95,0.00,,CLR,0.00,VWS V14.01,2013-08-07 07:25:00,
2013-08-07 00:30:00,53.1,51.7,28.73,WNW,292,0.0,0.0,95,0.00,,CLR,0.00,VWS V14.01,2013-08-07 07:30:00,
2013-08-07 00:35:00,52.5,51.1,28.73,WNW,292,0.0,0.0,95,0.00,,CLR,0.00,VWS V14.01,2013-08-07 07:35:00,
2013-08-07 00:40:00,52.2,50.8,28.73,WNW,292,0.0,0.0,95,0.00,,CLR,0.00,VWS V14.01,2013-08-07 07:40:00,
2013-08-07 00:45:00,52.0,50.6,28.73,WNW,292,0.0,0.0,95,0.00,,CLR,0.00,VWS V14.01,2013-08-07 07:45:00,
2013-08-07 00:50:00,52.0,50.6,28.73,WNW,292,0.0,0.0,95,0.00,,CLR,0.00,VWS V14.01,2013-08-07 07:50:00,
2013-08-07 00:55:00,51.8,50.4,28.73,WNW,292,0.0,0.0,95,0.00,,CLR,0.00,VWS V14.01,2013-08-07 07:55:00,
2013-08-07 01:00:00,52.0,50.6,28.73,WNW,292,0.0,0.0,95,0.00,,CLR,0.00,VWS V14.01,2013-08-07 08:00:00,
2013-08-07 01:05:00,52.0,50.6,28.73,West,270,0.0,0.0,95,0.00,,CLR,0.00,VWS V14.01,2013-08-07 08:05:00,
2013-08-07 01:10:00,51.6,50.5,28.73,West,270,0.0,0.0,96,0.00,,CLR,0.00,VWS V14.01,2013-08-07 08:10:00,
2013-08-07 01:15:00,51.4,50.3,28.73,West,270,0.0,0.0,96,0.00,,CLR,0.00,VWS V14.01,2013-08-07 08:15:00,
2013-08-07 01:20:00,51.3,50.2,28.73,NW,315,0.0,0.0,96,0.00,,CLR,0.00,VWS V14.01,2013-08-07 08:20:00,
2013-08-07 01:25:00,51.1,49.7,28.73,North,0,0.0,0.0,95,0.00,,CLR,0.00,VWS V14.01,2013-08-07 08:25:00,
2013-08-07 01:30:00,51.3,50.2,28.73,North,0,0.0,0.0,96,0.00,,CLR,0.00,VWS V14.01,2013-08-07 08:30:00,
2013-08-07 01:35:00,51.1,50.0,28.73,North,0,0.0,0.0,96,0.00,,CLR,0.00,VWS V14.01,2013-08-07 08:35:00,
2013-08-07 01:40:00,50.7,49.6,28.73,WSW,248,0.0,0.0,96,0.00,,CLR,0.00,VWS V14.01,2013-08-07 08:40:00,
2013-08-07 01:45:00,50.7,49.6,28.73,West,270,0.0,0.0,96,0.00,,CLR,0.00,VWS V14.01,2013-08-07 08:45:00,
2013-08-07 01:50:00,50.5,49.5,28.73,West,270,0.0,0.0,96,0.00,,CLR,0.00,VWS V14.01,2013-08-07 08:50:00,
2013-08-07 01:55:00,50.5,49.5,28.73,West,270,0.0,0.0,96,0.00,,CLR,0.00,VWS V14.01,2013-08-07 08:55:00,
2013-08-07 02:00:00,50.4,49.3,28.73,West,270,0.0,0.0,96,0.00,,CLR,0.00,VWS V14.01,2013-08-07 09:00:00,
2013-08-07 02:05:00,50.0,48.9,28.73,West,270,0.0,0.0,96,0.00,,CLR,0.00,VWS V14.01,2013-08-07 09:05:00,
2013-08-07 02:10:00,50.2,49.1,28.73,West,270,0.0,0.0,96,0.00,,CLR,0.00,VWS V14.01,2013-08-07 09:10:00,
2013-08-07 02:15:00,50.0,48.9,28.73,WNW,292,0.0,0.0,96,0.00,,CLR,0.00,VWS V14.01,2013-08-07 09:15:00,
2013-08-07 02:20:00,49.8,48.7,28.73,West,270,0.0,0.0,96,0.00,,CLR,0.00,VWS V14.01,2013-08-07 09:20:00,
2013-08-07 02:25:00,49.8,48.7,28.73,NNE,22,0.0,0.0,96,0.00,,CLR,0.00,VWS V14.01,2013-08-07 09:25:00,
2013-08-07 02:30:00,49.8,48.7,28.73,WSW,248,0.0,0.0,96,0.00,,CLR,0.00,VWS V14.01,2013-08-07 09:30:00,
2013-08-07 02:35:00,49.6,48.5,28.73,NE,45,2.5,2.5,96,0.00,,CLR,0.00,VWS V14.01,2013-08-07 09:35:00,
2013-08-07 02:40:00,49.5,48.4,28.73,NE,45,0.0,0.0,96,0.00,,CLR,0.00,VWS V14.01,2013-08-07 09:40:00,
2013-08-07 02:45:00,49.5,48.4,28.73,NE,45,0.0,0.0,96,0.00,,CLR,0.00,VWS V14.01,2013-08-07 09:45:00,
2013-08-07 02:50:00,49.5,48.7,28.73,NE,45,0.0,0.0,97,0.00,,CLR,0.00,VWS V14.01,2013-08-07 09:50:00,
2013-08-07 02:55:00,49.3,48.5,28.73,NE,45,0.0,0.0,97,0.00,,CLR,0.00,VWS V14.01,2013-08-07 09:55:00,
2013-08-07 03:00:00,49.3,48.5,28.73,NE,45,0.0,0.0,97,0.00,,CLR,0.00,VWS V14.01,2013-08-07 10:00:00,
2013-08-07 03:05:00,49.1,48.3,28.73,NE,45,0.0,0.0,97,0.00,,CLR,0.00,VWS V14.01,2013-08-07 10:05:00,
2013-08-07 03:10:00,49.8,49.0,28.73,NE,45,0.0,0.0,97,0.00,,CLR,0.00,VWS V14.01,2013-08-07 10:10:00,
2013-08-07 03:15:00,49.5,48.7,28.73,NE,45,0.0,0.0,97,0.00,,CLR,0.00,VWS V14.01,2013-08-07 10:15:00,
2013-08-07 03:20:00,49.3,48.5,28.73,NE,45,0.0,0.0,97,0.00,,CLR,0.00,VWS V14.01,2013-08-07 10:20:00,
2013-08-07 03:25:00,49.1,48.3,28.73,NE,45,0.0,0.0,97,0.00,,CLR,0.00,VWS V14.01,2013-08-07 10:25:00,
2013-08-07 03:30:00,49.1,48.3,28.73,NE,45,0.0,0.0,97,0.00,,CLR,0.00,VWS V14.01,2013-08-07 10:30:00,
2013-08-07 03:35:00,48.9,48.1,28.73,NE,45,0.0,0.0,97,0.00,,CLR,0.00,VWS V14.01,2013-08-07 10:35:00,
2013-08-07 03:40:00,49.1,48.3,28.73,NW,315,0.0,0.0,97,0.00,,CLR,0.00,VWS V14.01,2013-08-07 10:40:00,
2013-08-07 03:45:00,48.9,48.1,28.73,NNW,338,0.0,0.0,97,0.00,,CLR,0.00,VWS V14.01,2013-08-07 10:45:00,
2013-08-07 03:50:00,48.9,48.1,28.73,NNW,338,0.0,0.0,97,0.00,,CLR,0.00,VWS V14.01,2013-08-07 10:50:00,
2013-08-07 03:55:00,48.7,47.9,28.73,NNW,338,0.0,0.0,97,0.00,,CLR,0.00,VWS V14.01,2013-08-07 10:55:00,
2013-08-07 04:00:00,48.7,47.9,28.73,NW,315,0.0,0.0,97,0.00,,CLR,0.00,VWS V14.01,2013-08-07 11:00:00,
2013-08-07 04:05:00,48.7,47.9,28.73,NW,315,0.0,0.0,97,0.00,,BKN006,0.00,VWS V14.01,2013-08-07 11:05:00,
2013-08-07 04:10:00,48.6,47.5,28.76,WSW,248,0.0,0.0,96,0.00,,BKN006,0.00,VWS V14.01,2013-08-07 11:10:00,
2013-08-07 04:15:00,48.6,47.5,28.76,NNW,338,0.0,0.0,96,0.00,,BKN006,0.00,VWS V14.01,2013-08-07 11:15:00,
2013-08-07 04:20:00,48.4,47.6,28.76,West,270,0.0,0.0,97,0.00,,BKN006,0.00,VWS V14.01,2013-08-07 11:20:00,
2013-08-07 04:25:00,48.4,47.6,28.76,NE,45,0.0,0.0,97,0.00,,BKN006,0.00,VWS V14.01,2013-08-07 11:25:00,
2013-08-07 04:30:00,48.2,47.4,28.76,NE,45,1.3,1.3,97,0.00,,BKN006,0.00,VWS V14.01,2013-08-07 11:30:00,
2013-08-07 04:35:00,48.0,47.2,28.76,NE,45,0.0,0.0,97,0.00,,BKN006,0.00,VWS V14.01,2013-08-07 11:35:00,
2013-08-07 04:40:00,48.2,47.4,28.73,NE,45,0.0,0.0,97,0.00,,BKN006,0.00,VWS V14.01,2013-08-07 11:40:00,
2013-08-07 04:45:00,48.2,47.4,28.73,WNW,292,0.0,0.0,97,0.00,,BKN006,0.00,VWS V14.01,2013-08-07 11:45:00,
2013-08-07 04:50:00,48.0,47.2,28.73,NE,45,0.0,0.0,97,0.00,,BKN006,0.00,VWS V14.01,2013-08-07 11:50:00,
2013-08-07 04:55:00,47.8,47.0,28.76,West,270,0.0,0.0,97,0.00,,BKN006,0.00,VWS V14.01,2013-08-07 11:55:00,
2013-08-07 05:00:00,47.7,46.8,28.76,West,270,0.0,0.0,97,0.00,,BKN006,0.00,VWS V14.01,2013-08-07 12:00:00,
2013-08-07 05:05:00,47.7,46.8,28.76,NW,315,0.0,0.0,97,0.00,,BKN006,0.00,VWS V14.01,2013-08-07 12:05:00,
2013-08-07 05:10:00,47.7,46.8,28.76,NNW,338,0.0,0.0,97,0.00,,BKN006,0.00,VWS V14.01,2013-08-07 12:10:00,
2013-08-07 05:15:00,47.5,46.7,28.76,NW,315,0.0,0.0,97,0.00,,BKN006,0.00,VWS V14.01,2013-08-07 12:15:00,
2013-08-07 05:20:00,47.5,46.7,28.76,WNW,292,1.1,1.1,97,0.00,,BKN006,0.00,VWS V14.01,2013-08-07 12:20:00,
2013-08-07 05:25:00,47.7,46.8,28.76,West,270,0.0,0.0,97,0.00,,BKN006,0.00,VWS V14.01,2013-08-07 12:25:00,
2013-08-07 05:30:00,47.5,46.7,28.76,West,270,0.0,0.0,97,0.00,,BKN006,0.00,VWS V14.01,2013-08-07 12:30:00,
2013-08-07 05:35:00,47.1,46.3,28.76,West,270,0.0,0.0,97,0.00,,OVC004,0.00,VWS V14.01,2013-08-07 12:35:00,
2013-08-07 05:40:00,46.9,46.1,28.76,West,270,0.0,0.0,97,0.00,,OVC004,0.00,VWS V14.01,2013-08-07 12:40:00,
2013-08-07 05:45:00,47.3,46.5,28.76,WNW,292,0.0,0.0,97,0.00,,OVC004,0.00,VWS V14.01,2013-08-07 12:45:00,
2013-08-07 05:50:00,47.3,46.8,28.76,NW,315,0.0,0.0,98,0.00,,OVC004,0.00,VWS V14.01,2013-08-07 12:50:00,
2013-08-07 05:55:00,46.9,46.1,28.76,NW,315,0.0,0.0,97,0.00,,OVC004,0.00,VWS V14.01,2013-08-07 12:55:00,
2013-08-07 06:00:00,46.9,46.1,28.76,NW,315,0.0,0.0,97,0.00,,OVC004,0.00,VWS V14.01,2013-08-07 13:00:00,
2013-08-07 06:05:00,46.9,46.4,28.76,NNW,338,0.0,0.0,98,0.00,,OVC003,0.00,VWS V14.01,2013-08-07 13:05:00,
2013-08-07 06:10:00,46.9,46.4,28.76,NW,315,0.0,0.0,98,0.00,,OVC003,0.00,VWS V14.01,2013-08-07 13:10:00,
2013-08-07 06:15:00,46.9,46.4,28.76,NW,315,0.0,0.0,98,0.00,,OVC003,0.00,VWS V14.01,2013-08-07 13:15:00,
2013-08-07 06:20:00,47.1,46.6,28.76,NW,315,0.0,0.0,98,0.00,,OVC003,0.00,VWS V14.01,2013-08-07 13:20:00,
2013-08-07 06:25:00,47.1,46.6,28.79,NW,315,0.0,0.0,98,0.00,,OVC003,0.00,VWS V14.01,2013-08-07 13:25:00,
2013-08-07 06:30:00,46.9,46.4,28.79,NW,315,0.0,0.0,98,0.00,,OVC003,0.00,VWS V14.01,2013-08-07 13:30:00,
2013-08-07 06:35:00,47.1,46.6,28.79,NW,315,0.0,0.0,98,0.00,,OVC003,0.00,VWS V14.01,2013-08-07 13:35:00,
2013-08-07 06:40:00,47.1,46.6,28.79,NW,315,0.0,0.0,98,0.00,,OVC003,0.00,VWS V14.01,2013-08-07 13:40:00,
2013-08-07 06:45:00,47.1,46.6,28.79,NW,315,0.0,0.0,98,0.00,,OVC003,0.00,VWS V14.01,2013-08-07 13:45:00,
2013-08-07 06:50:00,47.1,46.6,28.79,WNW,292,0.0,0.0,98,0.00,,OVC003,0.00,VWS V14.01,2013-08-07 13:50:00,
2013-08-07 06:54:00,47.3,46.8,28.79,NNE,22,0.0,0.0,98,0.00,,OVC003,0.00,VWS V14.01,2013-08-07 13:54:00,
2013-08-07 06:59:00,47.5,47.0,28.79,WNW,292,0.0,0.0,98,0.00,,OVC003,0.00,VWS V14.01,2013-08-07 13:59:00,
2013-08-07 07:00:00,46.9,46.1,28.76,NW,315,0.0,0.0,97,0.00,,-RA,0.00,VWS V14.01,2013-08-07 14:00:00,
2013-08-07 07:04:00,47.7,47.1,28.79,WNW,292,0.0,0.0,98,0.00,,OVC003,0.00,VWS V14.01,2013-08-07 14:04:00,
2013-08-07 07:09:00,48.4,47.8,28.82,WNW,292,0.0,0.0,98,0.00,,OVC003,0.00,VWS V14.01,2013-08-07 14:09:00,
2013-08-07 07:14:00,49.6,49.1,28.82,WNW,292,0.0,0.0,98,0.00,,OVC003,0.00,VWS V14.01,2013-08-07 14:14:00,
2013-08-07 07:19:00,52.0,51.4,28.82,WNW,292,0.0,0.0,98,0.00,,OVC003,0.00,VWS V14.01,2013-08-07 14:19:00,
2013-08-07 07:20:00,52.0,51.4,28.82,WNW,292,0.0,0.0,98,0.00,,OVC003,0.00,VWS V14.01,2013-08-07 14:20:00,
2013-08-07 07:25:00,53.6,53.0,28.82,NW,315,0.0,0.0,98,0.00,,OVC003,0.00,VWS V14.01,2013-08-07 14:25:00,
2013-08-07 07:30:00,55.2,54.7,28.82,NW,315,0.0,0.0,98,0.00,,OVC003,0.00,VWS V14.01,2013-08-07 14:30:00,
2013-08-07 07:35:00,56.5,55.9,28.82,NW,315,0.0,0.0,98,0.00,,OVC003,0.00,VWS V14.01,2013-08-07 14:35:00,
2013-08-07 07:40:00,57.9,57.4,28.82,NW,315,0.0,0.0,98,0.00,,OVC003,0.00,VWS V14.01,2013-08-07 14:40:00,
2013-08-07 07:45:00,59.0,58.2,28.82,NW,315,0.0,0.0,97,0.00,,OVC003,0.00,VWS V14.01,2013-08-07 14:45:00,
2013-08-07 07:50:00,61.0,60.1,28.82,NW,315,0.0,0.0,97,0.00,,OVC003,0.00,VWS V14.01,2013-08-07 14:50:00,
2013-08-07 07:55:00,63.1,61.7,28.82,WNW,292,0.0,0.0,95,0.00,,OVC003,0.00,VWS V14.01,2013-08-07 14:55:00,
2013-08-07 08:00:00,64.4,62.6,28.82,ESE,112,0.0,0.0,94,0.00,,OVC003,0.00,VWS V14.01,2013-08-07 15:00:00,
2013-08-07 08:05:00,66.4,63.4,28.82,ESE,112,0.0,0.0,90,0.00,,OVC003,0.00,VWS V14.01,2013-08-07 15:05:00,
2013-08-07 08:10:00,66.9,61.9,28.82,ESE,112,0.9,0.9,84,0.00,,OVC003,0.00,VWS V14.01,2013-08-07 15:10:00,
2013-08-07 08:15:00,68.4,60.5,28.82,ESE,112,0.0,0.0,76,0.00,,OVC003,0.00,VWS V14.01,2013-08-07 15:15:00,
2013-08-07 08:20:00,68.9,60.3,28.82,ESE,112,1.3,1.3,74,0.00,,OVC003,0.00,VWS V14.01,2013-08-07 15:20:00,
2013-08-07 08:24:00,69.8,59.2,28.82,NE,45,0.0,0.0,69,0.00,,OVC003,0.00,VWS V14.01,2013-08-07 15:24:00,
2013-08-07 08:29:00,70.2,58.7,28.82,WNW,292,0.0,0.0,67,0.00,,OVC003,0.00,VWS V14.01,2013-08-07 15:29:00,
2013-08-07 08:30:00,55.2,54.7,28.82,NW,315,0.0,0.0,98,0.00,,-RA,0.00,VWS V14.01,2013-08-07 15:30:00,
2013-08-07 08:34:00,71.2,60.2,28.82,NW,315,1.1,1.1,68,0.00,,OVC003,0.00,VWS V14.01,2013-08-07 15:34:00,
2013-08-07 08:39:00,71.2,58.5,28.82,NE,45,0.0,0.0,64,0.00,,OVC003,0.00,VWS V14.01,2013-08-07 15:39:00,
2013-08-07 08:44:00,72.9,59.5,28.82,West,270,0.9,0.9,63,0.00,,OVC003,0.00,VWS V14.01,2013-08-07 15:44:00,
2013-08-07 08:49:00,73.4,58.2,28.82,NNE,22,0.0,0.0,59,0.00,,OVC003,0.00,VWS V14.01,2013-08-07 15:49:00,
2013-08-07 08:54:00,74.5,59.2,28.82,SE,135,0.9,0.9,59,0.00,,OVC003,0.00,VWS V14.01,2013-08-07 15:54:00,
2013-08-07 08:59:00,74.3,56.6,28.82,South,180,1.3,1.3,54,0.00,,OVC003,0.00,VWS V14.01,2013-08-07 15:59:00,
2013-08-07 09:00:00,64.4,62.6,28.82,ESE,112,0.0,0.0,94,0.00,,-RA,0.00,VWS V14.01,2013-08-07 16:00:00,
2013-08-07 09:04:00,74.5,55.7,28.82,NE,45,2.0,2.0,52,0.00,,OVC005,0.00,VWS V14.01,2013-08-07 16:04:00,
2013-08-07 09:09:00,74.7,56.9,28.82,SW,225,1.1,1.1,54,0.00,,OVC005,0.00,VWS V14.01,2013-08-07 16:09:00,
2013-08-07 09:14:00,75.0,56.2,28.82,North,0,1.3,1.3,52,0.00,,OVC005,0.00,VWS V14.01,2013-08-07 16:14:00,
2013-08-07 09:19:00,76.3,57.4,28.82,SW,225,1.6,1.6,52,0.00,,OVC005,0.00,VWS V14.01,2013-08-07 16:19:00,
2013-08-07 09:24:00,77.2,57.1,28.82,SSW,202,1.3,1.3,50,0.00,,OVC005,0.00,VWS V14.01,2013-08-07 16:24:00,
2013-08-07 09:29:00,77.7,56.5,28.82,WSW,248,1.3,1.3,48,0.00,,OVC005,0.00,VWS V14.01,2013-08-07 16:29:00,
2013-08-07 09:30:00,70.2,58.7,28.82,WNW,292,0.0,0.0,67,0.00,,-RA,0.00,VWS V14.01,2013-08-07 16:30:00,
2013-08-07 09:34:00,77.7,55.9,28.82,WNW,292,1.1,1.1,47,0.00,,OVC005,0.00,VWS V14.01,2013-08-07 16:34:00,
2013-08-07 09:39:00,79.3,56.8,28.82,West,270,1.6,1.6,46,0.00,,OVC005,0.00,VWS V14.01,2013-08-07 16:39:00,
2013-08-07 09:44:00,79.9,56.7,28.82,WSW,248,1.1,1.1,45,0.00,,OVC005,0.00,VWS V14.01,2013-08-07 16:44:00,
2013-08-07 09:49:00,79.9,56.0,28.82,SSW,202,0.0,0.0,44,0.00,,OVC005,0.00,VWS V14.01,2013-08-07 16:49:00,
2013-08-07 09:54:00,80.6,56.1,28.82,SSE,158,1.6,1.6,43,0.00,,OVC005,0.00,VWS V14.01,2013-08-07 16:54:00,
2013-08-07 09:59:00,81.0,56.4,28.82,SSW,202,1.6,1.6,43,0.00,,OVC005,0.00,VWS V14.01,2013-08-07 16:59:00,
2013-08-07 10:00:00,74.3,56.1,28.82,South,180,1.3,1.3,53,0.00,,-RA,0.00,VWS V14.01,2013-08-07 17:00:00,
2013-08-07 10:04:00,81.0,55.7,28.82,WSW,248,2.5,2.5,42,0.00,,BKN008,0.00,VWS V14.01,2013-08-07 17:04:00,
2013-08-07 10:09:00,81.3,56.1,28.79,WNW,292,2.5,2.5,42,0.00,,BKN008,0.00,VWS V14.01,2013-08-07 17:09:00,
2013-08-07 10:14:00,82.0,56.7,28.79,SSW,202,2.5,2.5,42,0.00,,BKN008,0.00,VWS V14.01,2013-08-07 17:14:00,
2013-08-07 10:19:00,82.0,56.7,28.79,SW,225,0.9,0.9,42,0.00,,BKN008,0.00,VWS V14.01,2013-08-07 17:19:00,
2013-08-07 10:24:00,83.3,57.8,28.79,SE,135,1.1,1.1,42,0.00,,BKN008,0.00,VWS V14.01,2013-08-07 17:24:00,
2013-08-07 10:29:00,83.3,57.8,28.79,SSE,158,0.0,0.0,42,0.00,,BKN008,0.00,VWS V14.01,2013-08-07 17:29:00,
2013-08-07 10:30:00,77.7,56.5,28.82,West,270,1.3,1.3,48,0.00,,-RA,0.00,VWS V14.01,2013-08-07 17:30:00,
2013-08-07 10:34:00,84.7,59.1,28.79,South,180,1.1,1.1,42,0.00,,BKN008,0.00,VWS V14.01,2013-08-07 17:34:00,
2013-08-07 10:39:00,84.9,58.6,28.79,ENE,68,2.2,2.2,41,0.00,,BKN008,0.00,VWS V14.01,2013-08-07 17:39:00,
2013-08-07 10:44:00,83.1,56.3,28.79,North,0,2.5,2.5,40,0.00,,BKN008,0.00,VWS V14.01,2013-08-07 17:44:00,
2013-08-07 10:49:00,82.9,57.5,28.79,NE,45,2.0,2.0,42,0.00,,BKN008,0.00,VWS V14.01,2013-08-07 17:49:00,
2013-08-07 10:54:00,82.0,56.0,28.79,NW,315,1.6,1.6,41,0.00,,BKN008,0.00,VWS V14.01,2013-08-07 17:54:00,
2013-08-07 10:59:00,82.2,56.2,28.79,NNE,22,2.5,2.5,41,0.00,,BKN008,0.00,VWS V14.01,2013-08-07 17:59:00,
2013-08-07 11:00:00,81.0,56.4,28.82,SW,225,3.1,3.1,43,0.00,,-RA,0.00,VWS V14.01,2013-08-07 18:00:00,
2013-08-07 11:04:00,83.1,57.0,28.79,NNW,338,1.6,1.6,41,0.00,,,0.00,VWS V14.01,2013-08-07 18:04:00,
2013-08-07 11:09:00,81.5,56.2,28.79,North,0,3.4,3.4,42,0.00,,,0.00,VWS V14.01,2013-08-07 18:09:00,
2013-08-07 11:14:00,81.3,56.1,28.79,North,0,1.3,1.3,42,0.00,,,0.00,VWS V14.01,2013-08-07 18:14:00,
2013-08-07 11:19:00,82.8,57.3,28.79,North,0,3.1,3.1,42,0.00,,,0.00,VWS V14.01,2013-08-07 18:19:00,
2013-08-07 11:24:00,81.3,56.1,28.76,SSW,202,2.2,2.2,42,0.00,,,0.00,VWS V14.01,2013-08-07 18:24:00,
2013-08-07 11:29:00,81.0,56.4,28.76,NNE,22,7.4,7.4,43,0.00,,,0.00,VWS V14.01,2013-08-07 18:29:00,
2013-08-07 11:30:00,83.3,57.8,28.79,SSE,158,0.0,0.0,42,0.00,,-RA,0.00,VWS V14.01,2013-08-07 18:30:00,
2013-08-07 11:34:00,80.2,56.4,28.76,NNW,338,0.9,0.9,44,0.00,,,0.00,VWS V14.01,2013-08-07 18:34:00,
2013-08-07 11:39:00,80.2,56.4,28.76,NE,45,8.1,8.1,44,0.00,,,0.00,VWS V14.01,2013-08-07 18:39:00,
2013-08-07 11:44:00,80.2,56.4,28.76,NE,45,3.6,3.6,44,0.00,,,0.00,VWS V14.01,2013-08-07 18:44:00,
2013-08-07 11:49:00,79.0,56.5,28.76,NE,45,2.7,2.7,46,0.00,,,0.00,VWS V14.01,2013-08-07 18:49:00,
2013-08-07 11:54:00,80.6,57.9,28.73,ENE,68,2.9,2.9,46,0.00,,,0.00,VWS V14.01,2013-08-07 18:54:00,
2013-08-07 11:59:00,81.7,58.3,28.73,NW,315,3.4,3.4,45,0.00,,,0.00,VWS V14.01,2013-08-07 18:59:00,
2013-08-07 12:00:00,81.9,55.9,28.79,South,180,2.2,2.2,41,0.00,,-RA,0.00,VWS V14.01,2013-08-07 19:00:00,
2013-08-07 12:04:00,82.2,58.8,28.73,NE,45,6.3,6.3,45,0.00,,CLR,0.00,VWS V14.01,2013-08-07 19:04:00,
2013-08-07 12:09:00,82.6,59.1,28.73,NE,45,2.2,2.2,45,0.00,,CLR,0.00,VWS V14.01,2013-08-07 19:09:00,
2013-08-07 12:14:00,82.2,58.8,28.73,WSW,248,3.8,3.8,45,0.00,,CLR,0.00,VWS V14.01,2013-08-07 19:14:00,
2013-08-07 12:19:00,82.0,58.0,28.73,WSW,248,4.0,4.0,44,0.00,,CLR,0.00,VWS V14.01,2013-08-07 19:19:00,
2013-08-07 12:24:00,82.4,58.3,28.73,NW,315,3.4,3.4,44,0.00,,CLR,0.00,VWS V14.01,2013-08-07 19:24:00,
2013-08-07 12:29:00,80.6,56.7,28.73,East,90,1.3,1.3,44,0.00,,CLR,0.00,VWS V14.01,2013-08-07 19:29:00,
2013-08-07 12:30:00,80.4,55.9,28.76,North,0,4.7,4.7,43,0.00,,-RA,0.00,VWS V14.01,2013-08-07 19:30:00,
2013-08-07 12:34:00,80.1,57.4,28.73,SSW,202,2.2,2.2,46,0.00,,CLR,0.00,VWS V14.01,2013-08-07 19:34:00,
2013-08-07 12:39:00,81.7,58.9,28.73,South,180,1.1,1.1,46,0.00,,CLR,0.00,VWS V14.01,2013-08-07 19:39:00,
2013-08-07 12:44:00,82.2,59.4,28.73,SSW,202,4.0,4.0,46,0.00,,CLR,0.00,VWS V14.01,2013-08-07 19:44:00,
2013-08-07 12:49:00,81.7,57.7,28.73,NE,45,6.3,6.3,44,0.00,,CLR,0.00,VWS V14.01,2013-08-07 19:49:00,
2013-08-07 12:54:00,82.4,59.0,28.73,SSW,202,2.0,2.0,45,0.00,,CLR,0.00,VWS V14.01,2013-08-07 19:54:00,
2013-08-07 12:59:00,83.5,59.3,28.73,SW,225,3.1,3.1,44,0.00,,CLR,0.00,VWS V14.01,2013-08-07 19:59:00,
2013-08-07 13:00:00,81.9,58.5,28.73,NNE,22,4.0,4.0,45,0.00,,-RA,0.00,VWS V14.01,2013-08-07 20:00:00,
2013-08-07 13:04:00,85.1,60.8,28.73,NE,45,2.5,2.5,44,0.00,,,0.00,VWS V14.01,2013-08-07 20:04:00,
2013-08-07 13:09:00,83.8,58.3,28.70,NW,315,2.5,2.5,42,0.00,,,0.00,VWS V14.01,2013-08-07 20:09:00,
2013-08-07 13:14:00,84.0,58.5,28.70,WSW,248,1.3,1.3,42,0.00,,,0.00,VWS V14.01,2013-08-07 20:14:00,
2013-08-07 13:19:00,83.8,57.7,28.70,NNE,22,3.6,3.6,41,0.00,,,0.00,VWS V14.01,2013-08-07 20:19:00,
2013-08-07 13:24:00,84.9,58.6,28.70,NNW,338,2.7,2.7,41,0.00,,,0.00,VWS V14.01,2013-08-07 20:24:00,
2013-08-07 13:29:00,85.1,58.1,28.70,SSW,202,4.3,4.3,40,0.00,,,0.00,VWS V14.01,2013-08-07 20:29:00,
2013-08-07 13:30:00,80.4,57.2,28.73,North,0,3.4,3.4,45,0.00,,-RA,0.00,VWS V14.01,2013-08-07 20:30:00,
2013-08-07 13:34:00,86.0,58.9,28.70,WSW,248,3.4,3.4,40,0.00,,,0.00,VWS V14.01,2013-08-07 20:34:00,
2013-08-07 13:39:00,87.1,59.8,28.70,ENE,68,1.3,1.3,40,0.00,,,0.00,VWS V14.01,2013-08-07 20:39:00,
2013-08-07 13:44:00,87.1,59.2,28.70,SSE,158,3.1,3.1,39,0.00,,,0.00,VWS V14.01,2013-08-07 20:44:00,
2013-08-07 13:49:00,87.6,59.6,28.70,West,270,6.3,6.3,39,0.00,,,0.00,VWS V14.01,2013-08-07 20:49:00,
2013-08-07 13:54:00,87.6,59.6,28.73,North,0,1.3,1.3,39,0.00,,,0.00,VWS V14.01,2013-08-07 20:54:00,
2013-08-07 13:59:00,87.6,60.3,28.73,North,0,2.2,2.2,40,0.00,,,0.00,VWS V14.01,2013-08-07 20:59:00,
2013-08-07 14:00:00,83.7,59.5,28.73,NE,45,2.5,2.5,44,0.00,,-RA,0.00,VWS V14.01,2013-08-07 21:00:00,
2013-08-07 14:04:00,87.8,59.8,28.73,WSW,248,5.4,5.4,39,0.00,,,0.00,VWS V14.01,2013-08-07 21:04:00,
2013-08-07 14:09:00,87.4,58.7,28.73,SSW,202,6.3,6.3,38,0.00,,,0.00,VWS V14.01,2013-08-07 21:09:00,
2013-08-07 14:14:00,86.4,58.5,28.73,SSW,202,3.6,3.6,39,0.00,,,0.00,VWS V14.01,2013-08-07 21:14:00,
2013-08-07 14:19:00,87.3,60.0,28.73,NNW,338,3.4,3.4,40,0.00,,,0.00,VWS V14.01,2013-08-07 21:19:00,
2013-08-07 14:24:00,87.3,59.3,28.73,WSW,248,4.3,4.3,39,0.00,,,0.00,VWS V14.01,2013-08-07 21:24:00,
2013-08-07 14:29:00,87.4,59.5,28.73,NNW,338,3.8,3.8,39,0.00,,,0.00,VWS V14.01,2013-08-07 21:29:00,
2013-08-07 14:30:00,84.9,58.6,28.70,SSW,202,3.4,3.4,41,0.00,,-RA,0.00,VWS V14.01,2013-08-07 21:30:00,
2013-08-07 14:34:00,87.8,59.1,28.73,NNW,338,4.0,4.0,38,0.00,,,0.00,VWS V14.01,2013-08-07 21:34:00,
2013-08-07 14:39:00,87.3,58.6,28.70,SW,225,7.8,7.8,38,0.00,,,0.00,VWS V14.01,2013-08-07 21:39:00,
2013-08-07 14:44:00,86.4,58.5,28.70,WSW,248,7.8,7.8,39,0.00,,,0.00,VWS V14.01,2013-08-07 21:44:00,
2013-08-07 14:49:00,86.7,58.8,28.70,SSW,202,4.9,4.9,39,0.00,,,0.00,VWS V14.01,2013-08-07 21:49:00,
2013-08-07 14:54:00,86.4,57.8,28.70,South,180,4.3,4.3,38,0.00,,,0.00,VWS V14.01,2013-08-07 21:54:00,
2013-08-07 14:59:00,87.6,58.9,28.70,WSW,248,4.9,4.9,38,0.00,,,0.00,VWS V14.01,2013-08-07 21:59:00,
2013-08-07 15:00:00,88.0,60.0,28.73,NW,315,2.5,2.5,39,0.00,,-RA,0.00,VWS V14.01,2013-08-07 22:00:00,
2013-08-07 15:04:00,88.2,57.9,28.70,SW,225,12.1,12.1,36,0.00,,CLR,0.00,VWS V14.01,2013-08-07 22:04:00,
2013-08-07 15:09:00,86.7,57.4,28.70,SSW,202,4.7,4.7,37,0.00,,CLR,0.00,VWS V14.01,2013-08-07 22:09:00,
2013-08-07 15:14:00,87.1,58.4,28.70,North,0,6.7,6.7,38,0.00,,CLR,0.00,VWS V14.01,2013-08-07 22:14:00,
2013-08-07 15:19:00,86.5,57.9,28.70,WSW,248,10.1,10.1,38,0.00,,CLR,0.00,VWS V14.01,2013-08-07 22:19:00,
2013-08-07 15:24:00,86.2,57.6,28.67,SW,225,11.2,11.2,38,0.00,,CLR,0.00,VWS V14.01,2013-08-07 22:24:00,
2013-08-07 15:29:00,86.7,58.1,28.67,NNE,22,9.0,9.0,38,0.00,,CLR,0.00,VWS V14.01,2013-08-07 22:29:00,
2013-08-07 15:30:00,87.4,59.5,28.73,SW,225,5.6,5.6,39,0.00,,-RA,0.00,VWS V14.01,2013-08-07 22:30:00,
2013-08-07 15:34:00,87.1,58.4,28.67,SSW,202,4.3,4.3,38,0.00,,CLR,0.00,VWS V14.01,2013-08-07 22:34:00,
2013-08-07 15:39:00,87.3,57.8,28.67,WSW,248,5.8,5.8,37,0.00,,CLR,0.00,VWS V14.01,2013-08-07 22:39:00,
2013-08-07 15:44:00,87.1,56.9,28.67,SW,225,3.6,3.6,36,0.00,,CLR,0.00,VWS V14.01,2013-08-07 22:44:00,
2013-08-07 15:49:00,87.1,56.9,28.67,SW,225,4.0,4.0,36,0.00,,CLR,0.00,VWS V14.01,2013-08-07 22:49:00,
2013-08-07 15:54:00,87.4,57.2,28.67,WSW,248,4.9,4.9,36,0.00,,CLR,0.00,VWS V14.01,2013-08-07 22:54:00,
2013-08-07 15:59:00,88.2,57.1,28.67,SE,135,2.0,2.0,35,0.00,,CLR,0.00,VWS V14.01,2013-08-07 22:59:00,
2013-08-07 16:00:00,87.6,58.9,28.70,NNE,22,3.4,3.4,38,0.00,,-RA,0.00,VWS V14.01,2013-08-07 23:00:00,
2013-08-07 16:04:00,88.7,58.3,28.67,NE,45,4.3,4.3,36,0.00,,CLR,0.00,VWS V14.01,2013-08-07 23:04:00,
2013-08-07 16:09:00,87.6,57.4,28.67,North,0,3.4,3.4,36,0.00,,CLR,0.00,VWS V14.01,2013-08-07 23:09:00,
2013-08-07 16:13:00,88.2,57.1,28.67,NE,45,5.6,5.6,35,0.00,,CLR,0.00,VWS V14.01,2013-08-07 23:13:00,
2013-08-07 16:18:00,87.3,54.7,28.67,NE,45,4.3,4.3,33,0.00,,CLR,0.00,VWS V14.01,2013-08-07 23:18:00,
2013-08-07 16:23:00,87.6,55.0,28.67,North,0,5.8,5.8,33,0.00,,CLR,0.00,VWS V14.01,2013-08-07 23:23:00,
2013-08-07 16:28:00,88.2,56.3,28.67,ENE,68,5.8,5.8,34,0.00,,CLR,0.00,VWS V14.01,2013-08-07 23:28:00,
2013-08-07 16:30:00,86.5,57.2,28.67,WSW,248,10.7,10.7,37,0.00,,-RA,0.00,VWS V14.01,2013-08-07 23:30:00,
2013-08-07 16:33:00,88.5,56.6,28.67,SSE,158,2.2,2.2,34,0.00,,CLR,0.00,VWS V14.01,2013-08-07 23:33:00,
2013-08-07 16:38:00,88.9,57.7,28.70,South,180,6.0,6.0,35,0.00,,CLR,0.00,VWS V14.01,2013-08-07 23:38:00,
2013-08-07 16:43:00,88.3,56.4,28.70,WSW,248,4.9,4.9,34,0.00,,CLR,0.00,VWS V14.01,2013-08-07 23:43:00,
2013-08-07 16:48:00,88.3,56.4,28.70,North,0,3.6,3.6,34,0.00,,CLR,0.00,VWS V14.01,2013-08-07 23:48:00,
2013-08-07 16:53:00,88.5,55.8,28.67,WNW,292,4.3,4.3,33,0.00,,CLR,0.00,VWS V14.01,2013-08-07 23:53:00,
2013-08-07 16:58:00,88.9,56.1,28.67,NNW,338,2.0,2.0,33,0.00,,CLR,0.00,VWS V14.01,2013-08-07 23:58:00,
2013-08-07 17:00:00,88.3,57.2,28.67,WSW,248,1.6,1.6,35,0.00,,-RA,0.00,VWS V14.01,2013-08-08 00:00:00,
2013-08-07 17:03:00,88.7,55.1,28.67,West,270,4.9,4.9,32,0.00,,CLR,0.00,VWS V14.01,2013-08-08 00:03:00,
2013-08-07 17:08:00,88.5,54.9,28.67,NNW,338,3.6,3.6,32,0.00,,CLR,0.00,VWS V14.01,2013-08-08 00:08:00,
2013-08-07 17:13:00,88.2,54.6,28.67,NNW,338,4.7,4.7,32,0.00,,CLR,0.00,VWS V14.01,2013-08-08 00:13:00,
2013-08-07 17:18:00,88.2,56.3,28.67,NNE,22,7.6,7.6,34,0.00,,CLR,0.00,VWS V14.01,2013-08-08 00:18:00,
2013-08-07 17:23:00,87.4,54.8,28.67,South,180,1.6,1.6,33,0.00,,CLR,0.00,VWS V14.01,2013-08-08 00:23:00,
2013-08-07 17:28:00,88.0,54.5,28.67,NW,315,5.4,5.4,32,0.00,,CLR,0.00,VWS V14.01,2013-08-08 00:28:00,
2013-08-07 17:30:00,88.3,56.4,28.67,SSW,202,2.9,2.9,34,0.00,,-RA,0.00,VWS V14.01,2013-08-08 00:30:00,
2013-08-07 17:33:00,87.8,55.2,28.67,NNW,338,2.5,2.5,33,0.00,,CLR,0.00,VWS V14.01,2013-08-08 00:33:00,
2013-08-07 17:38:00,87.1,53.7,28.70,NNE,22,2.7,2.7,32,0.00,,CLR,0.00,VWS V14.01,2013-08-08 00:38:00,
2013-08-07 17:43:00,87.4,54.8,28.70,SSW,202,6.3,6.3,33,0.00,,CLR,0.00,VWS V14.01,2013-08-08 00:43:00,
2013-08-07 17:48:00,87.3,54.7,28.70,West,270,1.6,1.6,33,0.00,,CLR,0.00,VWS V14.01,2013-08-08 00:48:00,
2013-08-07 17:53:00,86.9,54.4,28.70,North,0,3.6,3.6,33,0.00,,CLR,0.00,VWS V14.01,2013-08-08 00:53:00,
2013-08-07 17:58:00,86.5,53.2,28.70,NNW,338,0.9,0.9,32,0.00,,CLR,0.00,VWS V14.01,2013-08-08 00:58:00,
2013-08-07 18:00:00,88.5,54.9,28.67,WNW,292,6.9,6.9,32,0.00,,-RA,0.00,VWS V14.01,2013-08-08 01:00:00,
2013-08-07 18:03:00,86.5,53.2,28.70,WSW,248,2.5,2.5,32,0.00,,CLR,0.00,VWS V14.01,2013-08-08 01:03:00,
2013-08-07 18:08:00,86.5,54.0,28.70,NW,315,4.3,4.3,33,0.00,,CLR,0.00,VWS V14.01,2013-08-08 01:08:00,
2013-08-07 18:13:00,86.5,54.0,28.70,WNW,292,3.1,3.1,33,0.00,,CLR,0.00,VWS V14.01,2013-08-08 01:13:00,
2013-08-07 18:18:00,86.0,52.7,28.70,NNE,22,2.5,2.5,32,0.00,,CLR,0.00,VWS V14.01,2013-08-08 01:18:00,
2013-08-07 18:23:00,86.2,53.7,28.70,NNE,22,1.1,1.1,33,0.00,,CLR,0.00,VWS V14.01,2013-08-08 01:23:00,
2013-08-07 18:28:00,86.5,55.7,28.70,WNW,292,1.1,1.1,35,0.00,,CLR,0.00,VWS V14.01,2013-08-08 01:28:00,
2013-08-07 18:30:00,87.8,53.4,28.67,WSW,248,3.1,3.1,31,0.00,,-RA,0.00,VWS V14.01,2013-08-08 01:30:00,
2013-08-07 18:33:00,86.4,56.3,28.70,NNW,338,1.6,1.6,36,0.00,,CLR,0.00,VWS V14.01,2013-08-08 01:33:00,
2013-08-07 18:38:00,85.6,54.9,28.70,NW,315,2.7,2.7,35,0.00,,CLR,0.00,VWS V14.01,2013-08-08 01:38:00,
2013-08-07 18:43:00,84.9,53.5,28.70,West,270,0.9,0.9,34,0.00,,CLR,0.00,VWS V14.01,2013-08-08 01:43:00,
2013-08-07 18:48:00,84.2,53.6,28.70,NW,315,2.0,2.0,35,0.00,,CLR,0.00,VWS V14.01,2013-08-08 01:48:00,
2013-08-07 18:53:00,83.7,55.4,28.70,West,270,3.4,3.4,38,0.00,,CLR,0.00,VWS V14.01,2013-08-08 01:53:00,
2013-08-07 18:58:00,82.8,54.6,28.70,NNW,338,2.7,2.7,38,0.00,,CLR,0.00,VWS V14.01,2013-08-08 01:58:00,
2013-08-07 19:00:00,86.5,53.2,28.70,NNW,338,2.0,2.0,32,0.00,,-RA,0.00,VWS V14.01,2013-08-08 02:00:00,
2013-08-07 19:03:00,80.8,53.5,28.70,NW,315,2.0,2.0,39,0.00,,CLR,0.00,VWS V14.01,2013-08-08 02:03:00,
2013-08-07 19:08:00,78.6,52.3,28.70,NNW,338,2.5,2.5,40,0.00,,CLR,0.00,VWS V14.01,2013-08-08 02:08:00,
2013-08-07 19:13:00,77.4,52.5,28.70,WNW,292,2.2,2.2,42,0.00,,CLR,0.00,VWS V14.01,2013-08-08 02:13:00,
2013-08-07 19:18:00,76.1,52.0,28.70,WSW,248,2.0,2.0,43,0.00,,CLR,0.00,VWS V14.01,2013-08-08 02:18:00,
2013-08-07 19:23:00,74.7,53.1,28.70,NW,315,2.2,2.2,47,0.00,,CLR,0.00,VWS V14.01,2013-08-08 02:23:00,
2013-08-07 19:28:00,73.9,53.0,28.70,NW,315,2.0,2.0,48,0.00,,CLR,0.00,VWS V14.01,2013-08-08 02:28:00,
2013-08-07 19:30:00,86.4,57.0,28.70,WSW,248,2.9,2.9,37,0.00,,-RA,0.00,VWS V14.01,2013-08-08 02:30:00,
2013-08-07 19:33:00,73.2,53.5,28.70,North,0,2.5,2.5,50,0.00,,CLR,0.00,VWS V14.01,2013-08-08 02:33:00,
2013-08-07 19:38:00,72.9,54.8,28.73,WNW,292,2.2,2.2,53,0.00,,CLR,0.00,VWS V14.01,2013-08-08 02:38:00,
2013-08-07 19:43:00,71.6,55.1,28.73,NNW,338,2.7,2.7,56,0.00,,CLR,0.00,VWS V14.01,2013-08-08 02:43:00,
2013-08-07 19:48:00,71.2,55.7,28.73,NNW,338,1.6,1.6,58,0.00,,CLR,0.00,VWS V14.01,2013-08-08 02:48:00,
2013-08-07 19:53:00,70.3,55.8,28.73,WSW,248,0.9,0.9,60,0.00,,CLR,0.00,VWS V14.01,2013-08-08 02:53:00,
2013-08-07 19:58:00,69.8,56.2,28.73,NNW,338,2.0,2.0,62,0.00,,CLR,0.00,VWS V14.01,2013-08-08 02:58:00,
2013-08-07 20:00:00,81.7,54.3,28.70,West,270,2.0,2.0,39,0.00,,-RA,0.00,VWS V14.01,2013-08-08 03:00:00,
2013-08-07 20:03:00,68.9,55.4,28.73,North,0,0.9,0.9,62,0.00,,CLR,0.00,VWS V14.01,2013-08-08 03:03:00,
2013-08-07 20:08:00,68.5,55.5,28.73,NW,315,0.9,0.9,63,0.00,,CLR,0.00,VWS V14.01,2013-08-08 03:08:00,
2013-08-07 20:13:00,68.2,55.5,28.73,North,0,2.9,2.9,64,0.00,,CLR,0.00,VWS V14.01,2013-08-08 03:13:00,
2013-08-07 20:18:00,67.6,54.6,28.73,West,270,3.1,3.1,63,0.00,,CLR,0.00,VWS V14.01,2013-08-08 03:18:00,
2013-08-07 20:23:00,67.3,56.8,28.73,SSW,202,2.5,2.5,69,0.00,,CLR,0.00,VWS V14.01,2013-08-08 03:23:00,
2013-08-07 20:28:00,66.9,56.8,28.73,NE,45,3.8,3.8,70,0.00,,CLR,0.00,VWS V14.01,2013-08-08 03:28:00,
2013-08-07 20:30:00,73.8,52.9,28.70,West,270,1.3,1.3,48,0.00,,-RA,0.00,VWS V14.01,2013-08-08 03:30:00,
2013-08-07 20:33:00,66.9,57.6,28.73,SSW,202,4.7,4.7,72,0.00,,CLR,0.00,VWS V14.01,2013-08-08 03:33:00,
2013-08-07 20:38:00,67.5,57.7,28.73,SSW,202,4.0,4.0,71,0.00,,CLR,0.00,VWS V14.01,2013-08-08 03:38:00,
2013-08-07 20:43:00,68.7,56.5,28.73,SSW,202,4.3,4.3,65,0.00,,CLR,0.00,VWS V14.01,2013-08-08 03:43:00,
2013-08-07 20:48:00,68.5,57.2,28.73,NNW,338,2.5,2.5,67,0.00,,CLR,0.00,VWS V14.01,2013-08-08 03:48:00,
2013-08-07 20:53:00,67.8,57.3,28.73,NNW,338,2.9,2.9,69,0.00,,CLR,0.00,VWS V14.01,2013-08-08 03:53:00,
2013-08-07 20:58:00,67.3,56.4,28.73,NNE,22,1.3,1.3,68,0.00,,CLR,0.00,VWS V14.01,2013-08-08 03:58:00,
2013-08-07 21:00:00,69.3,56.1,28.73,WNW,292,0.0,0.0,63,0.00,,-RA,0.00,VWS V14.01,2013-08-08 04:00:00,
2013-08-07 21:01:00,67.3,56.0,28.73,North,0,3.4,3.4,67,0.00,,CLR,0.00,VWS V14.01,2013-08-08 04:01:00,
2013-08-07 21:06:00,66.7,56.3,28.73,WNW,292,2.2,2.2,69,0.00,,CLR,0.00,VWS V14.01,2013-08-08 04:06:00,
2013-08-07 21:11:00,66.0,56.4,28.76,NNE,22,1.1,1.1,71,0.00,,CLR,0.00,VWS V14.01,2013-08-08 04:11:00,
2013-08-07 21:16:00,65.7,56.8,28.76,NW,315,2.0,2.0,73,0.00,,CLR,0.00,VWS V14.01,2013-08-08 04:16:00,
2013-08-07 21:21:00,65.7,57.2,28.76,NNW,338,2.7,2.7,74,0.00,,CLR,0.00,VWS V14.01,2013-08-08 04:21:00,
2013-08-07 21:26:00,65.7,57.2,28.76,NW,315,1.3,1.3,74,0.00,,CLR,0.00,VWS V14.01,2013-08-08 04:26:00,
2013-08-07 21:30:00,67.1,56.6,28.73,WSW,248,2.7,2.7,69,0.00,,-RA,0.00,VWS V14.01,2013-08-08 04:30:00,
2013-08-07 21:31:00,65.1,57.0,28.76,NNW,338,1.6,1.6,75,0.00,,CLR,0.00,VWS V14.01,2013-08-08 04:31:00,
2013-08-07 21:36:00,64.6,57.6,28.76,West,270,2.2,2.2,78,0.00,,CLR,0.00,VWS V14.01,2013-08-08 04:36:00,
2013-08-07 21:41:00,64.8,57.8,28.76,West,270,3.1,3.1,78,0.00,,CLR,0.00,VWS V14.01,2013-08-08 04:41:00,
2013-08-07 21:46:00,64.8,57.8,28.76,SE,135,1.1,1.1,78,0.00,,CLR,0.00,VWS V14.01,2013-08-08 04:46:00,
2013-08-07 21:51:00,64.6,57.6,28.76,WSW,248,1.6,1.6,78,0.00,,CLR,0.00,VWS V14.01,2013-08-08 04:51:00,
2013-08-07 21:56:00,63.9,57.2,28.76,WSW,248,0.9,0.9,79,0.00,,CLR,0.00,VWS V14.01,2013-08-08 04:56:00,
2013-08-07 22:00:00,67.3,56.0,28.73,North,0,3.4,3.4,67,0.00,,-RA,0.00,VWS V14.01,2013-08-08 05:00:00,
2013-08-07 22:01:00,63.1,56.9,28.76,West,270,1.6,1.6,80,0.00,,CLR,0.00,VWS V14.01,2013-08-08 05:01:00,
2013-08-07 22:06:00,63.1,57.6,28.76,ENE,68,1.3,1.3,82,0.00,,CLR,0.00,VWS V14.01,2013-08-08 05:06:00,
2013-08-07 22:11:00,63.3,57.7,28.76,ENE,68,2.0,2.0,82,0.00,,CLR,0.00,VWS V14.01,2013-08-08 05:11:00,
2013-08-07 22:16:00,63.3,58.1,28.76,SSE,158,2.0,2.0,83,0.00,,CLR,0.00,VWS V14.01,2013-08-08 05:16:00,
2013-08-07 22:21:00,63.0,57.4,28.76,SSW,202,2.5,2.5,82,0.00,,CLR,0.00,VWS V14.01,2013-08-08 05:21:00,
2013-08-07 22:26:00,62.4,57.2,28.79,SSE,158,1.3,1.3,83,0.00,,CLR,0.00,VWS V14.01,2013-08-08 05:26:00,
2013-08-07 22:30:00,65.1,57.4,28.76,WNW,292,2.0,2.0,76,0.00,,-RA,0.00,VWS V14.01,2013-08-08 05:30:00,
2013-08-07 22:31:00,62.1,56.8,28.79,West,270,0.9,0.9,83,0.00,,CLR,0.00,VWS V14.01,2013-08-08 05:31:00,
2013-08-07 22:36:00,61.7,57.2,28.79,SSW,202,1.1,1.1,85,0.00,,CLR,0.00,VWS V14.01,2013-08-08 05:36:00,
2013-08-07 22:41:00,61.5,57.9,28.79,SE,135,1.1,1.1,88,0.00,,CLR,0.00,VWS V14.01,2013-08-08 05:41:00,
2013-08-07 22:46:00,61.5,57.9,28.79,NNW,338,2.7,2.7,88,0.00,,CLR,0.00,VWS V14.01,2013-08-08 05:46:00,
2013-08-07 22:51:00,61.2,57.3,28.79,ENE,68,1.6,1.6,87,0.00,,CLR,0.00,VWS V14.01,2013-08-08 05:51:00,
2013-08-07 22:56:00,61.0,57.1,28.76,North,0,0.0,0.0,87,0.00,,CLR,0.00,VWS V14.01,2013-08-08 05:56:00,
2013-08-07 23:00:00,63.3,57.4,28.76,WSW,248,0.0,0.0,81,0.00,,-RA,0.00,VWS V14.01,2013-08-08 06:00:00,
2013-08-07 23:01:00,60.8,56.9,28.76,SW,225,0.0,0.0,87,0.00,,CLR,0.00,VWS V14.01,2013-08-08 06:01:00,
2013-08-07 23:06:00,60.4,56.6,28.76,West,270,0.0,0.0,87,0.00,,CLR,0.00,VWS V14.01,2013-08-08 06:06:00,
2013-08-07 23:11:00,60.1,56.5,28.76,WNW,292,1.1,1.1,88,0.00,,CLR,0.00,VWS V14.01,2013-08-08 06:11:00,
2013-08-07 23:16:00,59.9,56.7,28.76,WSW,248,1.1,1.1,89,0.00,,CLR,0.00,VWS V14.01,2013-08-08 06:16:00,
2013-08-07 23:21:00,59.7,56.8,28.76,SW,225,0.0,0.0,90,0.00,,CLR,0.00,VWS V14.01,2013-08-08 06:21:00,
2013-08-07 23:26:00,59.5,56.6,28.76,SSW,202,1.6,1.6,90,0.00,,CLR,0.00,VWS V14.01,2013-08-08 06:26:00,
2013-08-07 23:30:00,62.2,57.3,28.79,SW,225,0.0,0.0,84,0.00,,-RA,0.00,VWS V14.01,2013-08-08 06:30:00,
2013-08-07 23:31:00,59.4,56.4,28.76,SSE,158,0.9,0.9,90,0.00,,CLR,0.00,VWS V14.01,2013-08-08 06:31:00,
2013-08-07 23:36:00,59.0,56.1,28.76,NE,45,1.6,1.6,90,0.00,,CLR,0.00,VWS V14.01,2013-08-08 06:36:00,
2013-08-07 23:41:00,58.8,56.5,28.76,WSW,248,1.3,1.3,92,0.00,,CLR,0.00,VWS V14.01,2013-08-08 06:41:00,
2013-08-07 23:45:00,58.6,56.3,28.76,WSW,248,1.1,1.1,92,0.00,,CLR,0.00,VWS V14.01,2013-08-08 06:45:00,
2013-08-07 23:50:00,58.5,56.2,28.76,NE,45,0.9,0.9,92,0.00,,CLR,0.00,VWS V14.01,2013-08-08 06:50:00,
2013-08-07 23:55:00,58.3,56.0,28.76,West,270,0.0,0.0,92,0.00,,CLR,0.00,VWS V14.01,2013-08-08 06:55:00,